Rhome, TX (76078)

9:43 PM CST on February 11, 2016 (GMT -0600)
KTXRHOME2 | | Change Station
CLOSE
Current Station
Personal Weather Station
Location: Rhome, TX
Elevation: 899 ft
Nearby Weather Stations

Elev 899 ft 33.05 °N, 97.45 °W | Updated 5 seconds ago

Clear
Clear
55.7 °F
Feels Like 55.7 °F
N
0.0
Wind Variable Wind from NNE
Gusts 0.0 mph

Today
High -- | Low -- °F
--% Chance of Precip.
Yesterday
High -- | Low -- °F
Precip. -- in
Pressure 30.12 in
Visibility 10.0 miles
Clouds Few 30000 ft
Dew Point 37 °F
Humidity 49%
Rainfall in
Snow Depth Not available.
7:17 AM 6:11 PM
Waxing Crescent, 17% visible
METAR KAFW 120253Z 00000KT 10SM FEW300 09/02 A3011 RMK AO2 SLP198 T00890022 51010
Pressure 30.12 in
Visibility 10.0 miles
Clouds Few 30000 ft
Dew Point 37 °F
Humidity 49%
Rainfall in
Snow Depth Not available.
7:17 AM 6:11 PM
Waxing Crescent, 17% visible
METAR KAFW 120253Z 00000KT 10SM FEW300 09/02 A3011 RMK AO2 SLP198 T00890022 51010

10-Day Weather Forecast

Almanac

Astronomy

Feb. 11, 2016 Rise Set
Actual Time
Civil Twilight
Nautical Twilight
Astronomical Twilight
Moon
Length of Visible Light
Length of Day
Tomorrow will be .
, % of the Moon is Illuminated

Today's Extremes

State Highs State Lows

Community

WunderPhotos

Upload Photos

1,892,254 photos uploaded!

WunderBlog® & News

Nearby

Air Quality

  Air Quality AQ Index Pollutant
Not available.

Snow Depth

Station Depth Elevation

Earthquake Activity

City Distance Mag. Time & Date
Minimum magnitude displayed is 2.5.

Coastal Water Temperatures

Place Temperature

Stations

Nearby Weather Stations

Station Location Temp. Windchill Dew Point Humidity Wind Precip. Elev Updated Type
                   

Watches & Warnings

There are currently no watches in effect.